Pathhead, United Kingdom
Current Conditions -  °F | °C
As of 12:20 AM on Wednesday 26 Nov 2014 (Local Time) from EGPH Reporting Station
Moderate Fog Moderate Fog  
Wind Chill:   Ceiling: 4100
Heat Index:   Visibility: 0.37mi
Dew Point:   Wind: 2mph
Humidity: 93%   Direction: 110°ESE
Pressure: 30.12"   Gusts: NA
Location:  55.86°N, 2.97°W
Report Text: EGPH 260020Z 11002KT 0600 R06/P1500 FG OVC041 05/04 Q1020
Loading
Personal Weather Stations






























Interactive Weather Map New forecast layout! Learn more

10-Day Weather Forecast

Advertisements
Track Severe Weather on mobile